Time;durP1;ratioP1;P1;durP2;ratioP2;P2;SDS_P1;SDS_P2;PMS_P1;PMS_P2;Temp;Humidity;BMP_temperature;BMP_pressure;BME280_temperature;BME280_humidity;BME280_pressure;Samples;Min_cycle;Max_cycle;Signal;HPM_P1;HPM_P2
2022/05/18 00:00:18;;;;;;;2.65;1.30;;;;;;;17.40;50.00;101940.88;5009106;28;119747;-76
2022/05/18 00:02:44;;;;;;;4.32;1.02;;;;;;;17.41;49.64;101953.50;5005368;28;119977;-76
2022/05/18 00:05:10;;;;;;;3.92;1.35;;;;;;;17.39;50.44;101953.97;5009831;28;120084;-76
2022/05/18 00:07:36;;;;;;;4.00;1.23;;;;;;;17.36;49.68;101934.72;5009609;28;119670;-76
2022/05/18 00:10:03;;;;;;;4.65;1.20;;;;;;;17.37;49.71;101939.78;5009844;28;119354;-76
2022/05/18 00:12:28;;;;;;;5.35;1.25;;;;;;;17.35;50.38;101944.28;4987142;28;120026;-76
2022/05/18 00:14:54;;;;;;;3.75;1.17;;;;;;;17.34;48.74;101949.06;5003189;28;119382;-76
2022/05/18 00:17:20;;;;;;;4.03;1.50;;;;;;;17.30;49.42;101948.47;4994511;28;119603;-76
2022/05/18 00:19:45;;;;;;;6.65;1.67;;;;;;;17.29;48.80;101952.47;5008022;27;119956;-76
2022/05/18 00:22:15;;;;;;;3.42;1.10;;;;;;;17.27;49.48;101949.41;4990120;28;119692;-77
2022/05/18 00:24:41;;;;;;;5.80;1.20;;;;;;;17.28;48.75;101955.72;5003649;27;120028;-76
2022/05/18 00:27:07;;;;;;;5.95;1.92;;;;;;;17.23;48.46;101945.22;5008256;28;119805;-76
2022/05/18 00:29:33;;;;;;;5.03;1.30;;;;;;;17.24;48.39;101950.31;5008307;28;119380;-76
2022/05/18 00:31:59;;;;;;;5.38;1.58;;;;;;;17.22;48.12;101954.78;5005911;28;119637;-76
2022/05/18 00:34:25;;;;;;;3.70;1.02;;;;;;;17.23;49.18;101950.78;5007650;28;120123;-76
2022/05/18 00:36:51;;;;;;;4.30;1.50;;;;;;;17.19;48.93;101948.94;4994994;28;119910;-76
2022/05/18 00:39:17;;;;;;;3.53;1.50;;;;;;;17.19;48.95;101951.69;5008093;28;119410;-76
2022/05/18 00:41:43;;;;;;;5.28;1.30;;;;;;;17.17;49.61;101951.41;4992172;28;119954;-76
2022/05/18 00:44:08;;;;;;;3.85;1.13;;;;;;;17.14;49.40;101957.88;5006882;28;119779;-76
2022/05/18 00:46:34;;;;;;;3.60;1.30;;;;;;;17.16;50.58;101963.72;4971864;28;120338;-76
2022/05/18 00:49:05;;;;;;;4.07;1.20;;;;;;;17.13;50.13;101956.34;4971687;28;120597;-76
2022/05/18 00:51:44;;;;;;;5.47;1.38;;;;;;;17.16;49.66;101962.97;4986539;28;122836;-76
2022/05/18 00:54:13;;;;;;;2.25;1.08;;;;;;;17.11;49.60;101947.72;4991607;28;120412;-76
2022/05/18 00:56:52;;;;;;;2.65;1.27;;;;;;;17.14;49.37;101951.56;5005448;28;119697;-76
2022/05/18 00:59:23;;;;;;;5.13;1.40;;;;;;;17.10;48.77;101948.97;5013506;28;119921;-76
2022/05/18 01:01:50;;;;;;;5.05;1.30;;;;;;;17.06;48.22;101944.81;5004113;27;119323;-76
2022/05/18 01:04:16;;;;;;;3.35;1.35;;;;;;;17.07;47.81;101946.34;4990708;28;119988;-76
2022/05/18 01:06:50;;;;;;;4.00;1.15;;;;;;;17.03;48.23;101943.72;5009063;28;119968;-76
2022/05/18 01:09:22;;;;;;;3.30;1.10;;;;;;;17.04;47.69;101953.59;4991182;28;121761;-76
2022/05/18 01:11:48;;;;;;;2.15;1.20;;;;;;;17.02;49.16;101947.72;4955744;28;121811;-76
2022/05/18 01:14:24;;;;;;;4.00;1.10;;;;;;;17.00;48.54;101941.88;4989789;28;119872;-76
2022/05/18 01:16:51;;;;;;;7.35;1.35;;;;;;;16.98;49.00;101955.44;5009428;28;119577;-76
2022/05/18 01:19:26;;;;;;;2.40;1.27;;;;;;;16.96;47.30;101941.28;5007933;28;119999;-76
2022/05/18 01:22:15;;;;;;;4.72;1.15;;;;;;;16.95;47.41;101933.44;5013722;28;119437;-76
2022/05/18 01:25:01;;;;;;;6.25;1.35;;;;;;;16.90;48.13;101936.81;4990627;28;121580;-76
2022/05/18 01:27:27;;;;;;;8.60;1.60;;;;;;;16.90;48.44;101937.59;4993556;28;119631;-76
2022/05/18 01:29:53;;;;;;;3.60;1.30;;;;;;;16.92;49.16;101940.66;4986124;28;119573;-76
2022/05/18 01:32:20;;;;;;;4.05;1.08;;;;;;;16.91;49.74;101949.44;4988997;28;123198;-76
2022/05/18 01:34:46;;;;;;;3.50;1.10;;;;;;;16.78;48.81;101925.44;4992239;28;119569;-76
2022/05/18 01:37:13;;;;;;;3.67;1.10;;;;;;;16.84;48.01;101942.22;5011664;28;120061;-76
2022/05/18 01:39:58;;;;;;;4.43;1.08;;;;;;;16.85;49.47;101944.53;4975463;28;122270;-77
2022/05/18 01:42:30;;;;;;;3.20;1.20;;;;;;;16.85;49.38;101943.75;4978928;28;119958;-76
2022/05/18 01:44:56;;;;;;;4.78;1.33;;;;;;;16.71;49.17;101924.97;4995160;28;120124;-76
2022/05/18 01:47:22;;;;;;;2.65;1.33;;;;;;;16.80;50.33;101938.84;5009892;28;119733;-76
2022/05/18 01:49:51;;;;;;;4.63;1.45;;;;;;;16.78;49.88;101939.28;4989128;28;121862;-76
2022/05/18 01:52:17;;;;;;;3.38;1.30;;;;;;;16.81;49.95;101943.16;4976003;28;122939;-76
2022/05/18 01:54:47;;;;;;;5.22;1.23;;;;;;;16.80;49.73;101938.84;5012681;28;119771;-77
2022/05/18 01:57:14;;;;;;;4.18;1.20;;;;;;;16.81;50.16;101943.16;5012113;28;119784;-77
2022/05/18 01:59:40;;;;;;;5.30;1.25;;;;;;;16.78;49.82;101936.50;4977138;28;122769;-76
2022/05/18 02:02:10;;;;;;;5.15;1.10;;;;;;;16.76;50.13;101941.75;5009683;28;119836;-76
2022/05/18 02:04:36;;;;;;;2.63;1.15;;;;;;;16.77;50.48;101934.97;5002883;28;119640;-77
2022/05/18 02:07:03;;;;;;;4.70;1.23;;;;;;;16.76;51.13;101938.22;4996813;28;119935;-76
2022/05/18 02:09:29;;;;;;;2.63;1.25;;;;;;;16.76;51.17;101932.66;5012101;28;119382;-76
2022/05/18 02:11:55;;;;;;;5.28;1.42;;;;;;;16.76;51.21;101927.91;5011278;27;120220;-77
2022/05/18 02:14:22;;;;;;;4.65;1.50;;;;;;;16.76;50.41;101929.91;5004787;28;119966;-76
2022/05/18 02:16:48;;;;;;;3.85;1.33;;;;;;;16.75;50.41;101931.13;5005003;28;119400;-76
2022/05/18 02:19:14;;;;;;;4.10;1.40;;;;;;;16.70;50.91;101915.13;5009025;28;120011;-76
2022/05/18 02:21:40;;;;;;;2.60;1.10;;;;;;;16.70;50.21;101917.91;5006829;28;119784;-76
2022/05/18 02:24:06;;;;;;;5.35;1.38;;;;;;;16.68;51.00;101915.59;4975937;28;121765;-77
2022/05/18 02:26:32;;;;;;;5.65;1.60;;;;;;;16.72;51.60;101924.50;5010058;28;120515;-77
2022/05/18 02:28:57;;;;;;;2.42;1.40;;;;;;;16.72;52.47;101926.53;5012939;28;119826;-76
2022/05/18 02:31:23;;;;;;;3.83;1.27;;;;;;;16.72;51.23;101935.59;5008573;28;119731;-76
2022/05/18 02:33:49;;;;;;;6.35;1.40;;;;;;;16.68;50.77;101937.75;5010282;28;119846;-76
2022/05/18 02:36:15;;;;;;;4.80;1.20;;;;;;;16.65;50.35;101926.81;5012169;28;119447;-76
2022/05/18 02:38:41;;;;;;;4.78;1.52;;;;;;;16.68;51.87;101931.44;5008402;28;119934;-77
2022/05/18 02:41:07;;;;;;;4.38;1.15;;;;;;;16.67;51.61;101927.16;4991778;28;119632;-77
2022/05/18 02:43:38;;;;;;;4.05;1.13;;;;;;;16.66;51.46;101925.56;4967673;28;122120;-76
2022/05/18 02:46:07;;;;;;;3.88;1.55;;;;;;;16.66;52.55;101925.56;4988720;28;120659;-77
2022/05/18 02:48:33;;;;;;;7.43;1.27;;;;;;;16.64;52.05;101930.81;4995079;28;119281;-76
2022/05/18 02:50:59;;;;;;;3.50;1.30;;;;;;;16.62;52.00;101930.50;4984119;28;121405;-76
2022/05/18 02:53:25;;;;;;;2.45;1.23;;;;;;;16.62;52.05;101933.28;4993150;28;119670;-76
2022/05/18 02:56:08;;;;;;;2.95;1.33;;;;;;;16.58;52.92;101928.66;5007987;28;119394;-76
2022/05/18 02:58:47;;;;;;;6.45;1.50;;;;;;;16.56;52.05;101925.59;4992124;28;119510;-76
2022/05/18 03:01:19;;;;;;;4.75;1.30;;;;;;;16.54;52.73;101928.03;5010727;28;119740;-76
2022/05/18 03:03:45;;;;;;;3.53;1.50;;;;;;;16.50;52.53;101927.41;5006523;28;120332;-76
2022/05/18 03:06:13;;;;;;;3.90;1.60;;;;;;;16.48;52.81;101929.88;4978975;28;121177;-76
2022/05/18 03:08:41;;;;;;;5.13;1.70;;;;;;;16.46;52.31;101932.34;5003834;28;119859;-76
2022/05/18 03:11:08;;;;;;;4.93;1.25;;;;;;;16.43;52.60;101938.81;5003819;28;119619;-76
2022/05/18 03:13:34;;;;;;;4.15;1.50;;;;;;;16.42;52.82;101944.81;5010765;28;119711;-76
2022/05/18 03:16:01;;;;;;;4.88;1.48;;;;;;;16.38;53.43;101944.97;5009791;28;119720;-77
2022/05/18 03:18:27;;;;;;;5.60;1.40;;;;;;;16.38;53.55;101944.97;5010450;28;121054;-76
2022/05/18 03:23:38;;;;;;;5.32;1.30;;;;;;;16.34;53.47;101947.13;5002046;28;118412;-76
2022/05/18 03:26:13;;;;;;;4.45;1.58;;;;;;;16.32;53.87;101938.47;5011084;28;119795;-76
2022/05/18 03:28:41;;;;;;;4.60;1.42;;;;;;;16.26;54.16;101940.31;5010285;28;119301;-76
2022/05/18 03:31:07;;;;;;;4.75;1.45;;;;;;;16.27;53.86;101939.09;5008851;28;119778;-76
2022/05/18 03:33:34;;;;;;;2.85;1.20;;;;;;;16.25;53.66;101934.00;5006654;28;119965;-76
2022/05/18 03:36:00;;;;;;;2.00;1.17;;;;;;;16.21;53.55;101935.38;5010642;28;120217;-76
2022/05/18 03:38:27;;;;;;;5.32;1.42;;;;;;;16.23;53.74;101944.00;5009686;28;119987;-76
2022/05/18 03:40:52;;;;;;;4.43;1.38;;;;;;;16.17;54.09;101941.09;5010199;28;119185;-77
2022/05/18 03:43:19;;;;;;;10.80;1.92;;;;;;;16.18;54.00;101950.94;4992879;28;119058;-76
2022/05/18 03:45:45;;;;;;;5.13;1.75;;;;;;;16.16;53.51;101953.38;5010092;28;119991;-76
2022/05/18 03:48:12;;;;;;;4.32;1.50;;;;;;;16.15;53.75;101951.84;4984656;28;119555;-77
2022/05/18 03:50:39;;;;;;;6.57;1.60;;;;;;;16.15;54.35;101957.38;5010259;28;119802;-76
2022/05/18 03:53:07;;;;;;;4.95;1.58;;;;;;;16.15;54.60;101951.06;5010334;28;120033;-76
2022/05/18 03:55:33;;;;;;;5.95;1.33;;;;;;;16.12;54.73;101949.22;5014937;28;119613;-76
2022/05/18 03:57:59;;;;;;;5.57;1.60;;;;;;;16.13;54.65;101946.00;4983908;28;119833;-77
2022/05/18 04:00:25;;;;;;;5.93;1.70;;;;;;;16.12;54.29;101946.47;5009497;28;120101;-76
2022/05/18 04:02:50;;;;;;;6.78;1.67;;;;;;;16.10;54.49;101944.16;5008892;27;119641;-76
2022/05/18 04:05:20;;;;;;;4.20;1.60;;;;;;;16.13;55.07;101948.00;5010067;28;119867;-77
2022/05/18 04:07:49;;;;;;;4.03;1.42;;;;;;;16.15;54.84;101946.31;5009047;28;119372;-76
2022/05/18 04:10:15;;;;;;;3.97;1.58;;;;;;;16.16;55.14;101936.00;4992516;28;120650;-76
2022/05/18 04:12:42;;;;;;;3.97;1.50;;;;;;;16.14;55.00;101938.47;4987891;28;123227;-77
2022/05/18 04:15:09;;;;;;;9.13;1.67;;;;;;;16.07;53.84;101935.97;4987184;28;119943;-76
2022/05/18 04:17:35;;;;;;;7.18;1.90;;;;;;;16.14;54.72;101944.78;5012481;28;119469;-76
2022/05/18 04:20:03;;;;;;;4.95;1.50;;;;;;;16.20;54.60;101950.47;5010160;28;119749;-76
2022/05/18 04:22:29;;;;;;;5.03;1.80;;;;;;;16.21;54.84;101938.94;5009766;28;119725;-76
2022/05/18 04:24:55;;;;;;;4.97;1.42;;;;;;;16.21;55.17;101932.63;4991939;28;120490;-76
2022/05/18 04:27:21;;;;;;;7.88;1.70;;;;;;;16.26;54.50;101940.31;5010350;28;119786;-76
2022/05/18 04:29:47;;;;;;;3.60;1.52;;;;;;;16.31;54.90;101941.69;5007953;28;119565;-77
2022/05/18 04:32:12;;;;;;;5.28;1.38;;;;;;;16.38;55.09;101956.03;4972514;28;121495;-76
2022/05/18 04:34:38;;;;;;;3.03;1.50;;;;;;;16.45;55.74;101957.72;4975685;28;119776;-77
2022/05/18 04:37:04;;;;;;;4.43;1.48;;;;;;;16.47;55.69;101950.50;5009329;28;119742;-76
2022/05/18 04:39:30;;;;;;;5.88;1.70;;;;;;;16.55;55.97;101953.72;5011429;28;121099;-76
2022/05/18 04:41:56;;;;;;;8.68;1.65;;;;;;;16.57;54.31;101948.53;4991759;27;120665;-76
2022/05/18 04:44:25;;;;;;;5.65;1.83;;;;;;;16.61;55.28;101957.44;4973387;28;121016;-76
2022/05/18 04:46:55;;;;;;;5.63;1.80;;;;;;;16.62;53.90;101945.13;5010080;28;119456;-76
2022/05/18 04:49:20;;;;;;;5.50;1.50;;;;;;;16.66;54.92;101950.50;4991123;28;120959;-76
2022/05/18 04:51:46;;;;;;;6.05;1.60;;;;;;;16.68;55.20;101962.69;4998946;28;119935;-77
2022/05/18 04:54:12;;;;;;;5.35;1.73;;;;;;;16.71;55.60;101958.22;5010030;28;119261;-78
2022/05/18 04:56:40;;;;;;;2.72;1.55;;;;;;;16.71;55.54;101958.22;4991494;28;119731;-77
2022/05/18 04:59:06;;;;;;;6.53;1.75;;;;;;;16.68;55.35;101950.84;5012479;28;119414;-78
2022/05/18 05:01:35;;;;;;;7.43;1.80;;;;;;;16.73;55.90;101953.00;4971149;28;120800;-79
2022/05/18 05:04:02;;;;;;;7.53;1.70;;;;;;;16.76;55.27;101949.28;4973994;28;121764;-77
2022/05/18 05:06:28;;;;;;;4.80;1.42;;;;;;;16.77;55.42;101950.84;5009629;28;120539;-77
2022/05/18 05:08:53;;;;;;;9.38;2.00;;;;;;;16.78;54.87;101944.06;4989093;28;122258;-78
2022/05/18 05:11:19;;;;;;;5.00;1.98;;;;;;;16.82;55.08;101948.22;4994589;28;121453;-77
2022/05/18 05:13:45;;;;;;;7.10;1.63;;;;;;;16.88;54.45;101943.59;5000702;28;120043;-78
2022/05/18 05:16:11;;;;;;;6.30;1.40;;;;;;;16.93;55.55;101947.75;4986632;28;121929;-78
2022/05/18 05:18:38;;;;;;;5.63;1.67;;;;;;;16.96;54.77;101952.34;5003193;28;120089;-78
2022/05/18 05:21:05;;;;;;;7.85;1.60;;;;;;;17.00;54.82;101952.97;5015576;28;119438;-77
2022/05/18 05:23:32;;;;;;;4.00;1.63;;;;;;;17.02;53.15;101944.19;4983224;28;121587;-77
2022/05/18 05:25:59;;;;;;;8.65;1.80;;;;;;;17.06;53.92;101953.91;4975572;28;119349;-77
2022/05/18 05:28:25;;;;;;;3.00;1.40;;;;;;;17.07;54.61;101938.81;5002011;28;119811;-78
2022/05/18 05:30:52;;;;;;;5.03;1.55;;;;;;;17.12;54.94;101940.19;4977297;28;122745;-78
2022/05/18 05:33:18;;;;;;;5.47;1.58;;;;;;;17.18;54.94;101941.09;5010601;27;119543;-77
2022/05/18 05:35:44;;;;;;;4.30;1.70;;;;;;;17.25;54.66;101949.06;4994640;28;119442;-78
2022/05/18 05:38:11;;;;;;;6.43;1.65;;;;;;;17.31;54.82;101944.44;4999361;28;119385;-78
2022/05/18 05:40:38;;;;;;;3.75;1.55;;;;;;;17.38;55.66;101940.56;4998819;28;119615;-78
2022/05/18 05:43:09;;;;;;;4.55;1.60;;;;;;;17.44;54.73;101935.91;4993624;28;120527;-78
2022/05/18 05:45:36;;;;;;;9.15;1.83;;;;;;;17.48;54.97;101937.28;4996697;28;119421;-77
2022/05/18 05:48:01;;;;;;;3.33;1.60;;;;;;;17.52;54.44;101931.59;5012142;28;119786;-77
2022/05/18 05:50:27;;;;;;;5.15;1.95;;;;;;;17.54;55.15;101929.13;5012059;28;121798;-77
2022/05/18 05:52:53;;;;;;;4.78;1.70;;;;;;;17.58;54.96;101929.72;5009715;28;119553;-77
2022/05/18 05:55:19;;;;;;;3.00;1.63;;;;;;;17.62;55.05;101926.75;5013068;28;119927;-77
2022/05/18 05:57:45;;;;;;;5.63;1.90;;;;;;;17.64;55.69;101922.28;4996713;28;120996;-78
2022/05/18 06:00:11;;;;;;;8.60;1.73;;;;;;;17.65;54.87;101926.59;4993916;28;119841;-78
2022/05/18 06:02:40;;;;;;;2.65;1.60;;;;;;;17.68;54.53;101930.44;5004581;28;119548;-78
2022/05/18 06:05:06;;;;;;;4.13;1.60;;;;;;;17.68;53.76;101916.59;5001907;28;122805;-78
2022/05/18 06:07:32;;;;;;;6.25;1.70;;;;;;;17.75;53.95;101921.81;5000358;28;120296;-78
2022/05/18 06:09:57;;;;;;;4.53;1.63;;;;;;;17.87;54.61;101926.34;5011792;28;120205;-78
2022/05/18 06:12:25;;;;;;;6.70;1.80;;;;;;;17.97;54.67;101930.59;5011532;27;119987;-78
2022/05/18 06:14:51;;;;;;;6.88;2.05;;;;;;;18.09;54.84;101934.41;5012259;28;119661;-78
2022/05/18 06:17:16;;;;;;;6.93;1.85;;;;;;;18.17;53.60;101920.91;5010989;28;121437;-77
2022/05/18 06:19:42;;;;;;;4.75;1.67;;;;;;;18.20;54.60;101929.06;4991217;28;119597;-78
2022/05/18 06:22:08;;;;;;;3.85;1.55;;;;;;;18.20;53.72;101923.50;4992553;28;119432;-77
2022/05/18 06:24:35;;;;;;;4.72;1.73;;;;;;;18.18;53.70;101923.22;4992977;28;120399;-77
2022/05/18 06:27:01;;;;;;;6.57;1.80;;;;;;;18.18;54.62;101926.00;5016024;28;119421;-78
2022/05/18 06:29:27;;;;;;;5.10;2.30;;;;;;;18.15;53.86;101932.50;5009989;28;119873;-79
2022/05/18 06:31:53;;;;;;;5.43;2.22;;;;;;;18.11;53.96;101931.91;4992580;28;119609;-78
2022/05/18 06:34:21;;;;;;;7.65;2.08;;;;;;;18.12;54.85;101927.91;5011928;28;119797;-77
2022/05/18 06:36:49;;;;;;;3.90;2.00;;;;;;;18.23;56.02;101927.38;5010373;28;119729;-78
2022/05/18 06:39:18;;;;;;;4.82;2.20;;;;;;;18.30;55.35;101930.56;4992848;28;119553;-78
2022/05/18 06:41:44;;;;;;;5.03;2.05;;;;;;;18.46;54.97;101928.59;5005212;28;119433;-78
2022/05/18 06:44:10;;;;;;;4.53;2.30;;;;;;;18.61;54.80;101937.72;5011071;28;119580;-79
2022/05/18 06:46:38;;;;;;;3.95;2.13;;;;;;;18.76;54.18;101935.00;5010271;28;119755;-78
2022/05/18 06:49:10;;;;;;;5.70;2.42;;;;;;;18.89;54.17;101930.69;5004626;28;120347;-78
2022/05/18 06:51:39;;;;;;;6.47;2.25;;;;;;;19.02;54.06;101928.41;5003509;28;119762;-78
2022/05/18 06:54:05;;;;;;;5.95;2.30;;;;;;;19.14;53.74;101925.81;5010104;28;119745;-78
2022/05/18 06:56:37;;;;;;;6.63;2.22;;;;;;;19.26;53.35;101931.09;4983700;28;122709;-77
2022/05/18 06:59:03;;;;;;;5.18;2.63;;;;;;;19.37;53.84;101933.28;5007446;28;119510;-78
2022/05/18 07:01:29;;;;;;;7.05;2.72;;;;;;;19.45;54.46;101937.22;5010074;28;119628;-78
2022/05/18 07:03:56;;;;;;;4.75;2.50;;;;;;;19.57;54.17;101938.16;4992388;28;123142;-78
2022/05/18 07:06:24;;;;;;;3.92;2.75;;;;;;;19.66;52.86;101934.53;5005837;28;119975;-78
2022/05/18 07:08:51;;;;;;;4.25;2.45;;;;;;;19.74;53.50;101935.66;5012149;28;120016;-78
2022/05/18 07:11:18;;;;;;;6.22;2.70;;;;;;;19.85;53.72;101933.78;5010148;28;120384;-78
2022/05/18 07:13:46;;;;;;;6.90;2.65;;;;;;;19.90;53.42;101929.56;5010632;28;119814;-78
2022/05/18 07:16:12;;;;;;;4.15;2.35;;;;;;;20.06;53.42;101934.56;5001792;28;119912;-79
2022/05/18 07:18:41;;;;;;;4.15;2.47;;;;;;;20.15;53.59;101934.44;5008379;28;119574;-78
2022/05/18 07:21:07;;;;;;;5.47;2.35;;;;;;;20.21;53.50;101926.16;4991742;28;119995;-79
2022/05/18 07:23:33;;;;;;;5.57;2.63;;;;;;;20.21;53.65;101921.34;5009283;28;121084;-78
2022/05/18 07:25:59;;;;;;;6.47;2.40;;;;;;;20.24;53.14;101931.53;5009797;28;119709;-78
2022/05/18 07:28:26;;;;;;;4.45;2.30;;;;;;;20.24;53.40;101934.31;4990046;28;119938;-78
2022/05/18 07:30:53;;;;;;;7.90;3.10;;;;;;;20.19;53.35;101923.88;5015408;27;120604;-78
2022/05/18 07:33:22;;;;;;;5.90;3.15;;;;;;;20.20;53.41;101924.63;4985472;28;120198;-78
2022/05/18 07:35:51;;;;;;;6.82;2.90;;;;;;;20.21;53.21;101921.34;4990634;28;120579;-78
2022/05/18 07:38:26;;;;;;;6.78;3.17;;;;;;;20.22;54.19;101919.34;4975018;28;119709;-78
2022/05/18 07:40:52;;;;;;;5.47;2.92;;;;;;;20.27;53.34;101924.19;5009382;27;119443;-78
2022/05/18 07:43:18;;;;;;;7.88;3.20;;;;;;;20.30;53.33;101923.22;5010019;27;120226;-78
2022/05/18 07:45:49;;;;;;;3.97;3.10;;;;;;;20.36;53.58;101921.28;5009968;28;120013;-78
2022/05/18 07:48:15;;;;;;;7.30;3.08;;;;;;;20.45;53.99;101920.38;5008306;28;119565;-78
2022/05/18 07:50:41;;;;;;;7.60;2.90;;;;;;;20.50;54.73;101914.09;5008987;28;120401;-78
2022/05/18 07:53:07;;;;;;;6.40;3.40;;;;;;;20.56;54.45;101919.75;4995596;28;119722;-78
2022/05/18 07:55:32;;;;;;;6.40;3.60;;;;;;;20.61;54.91;101908.66;5009762;28;120171;-77
2022/05/18 07:58:01;;;;;;;8.48;3.50;;;;;;;20.64;53.86;101916.03;5010276;28;119675;-78
2022/05/18 08:00:26;;;;;;;5.95;3.47;;;;;;;20.67;54.28;101917.84;5009238;28;119963;-78
2022/05/18 08:02:52;;;;;;;4.90;3.08;;;;;;;20.72;53.97;101914.34;5008103;27;119961;-79
2022/05/18 08:05:18;;;;;;;6.28;3.17;;;;;;;20.75;53.63;101924.50;5009410;28;119912;-78
2022/05/18 08:07:47;;;;;;;6.38;3.40;;;;;;;20.77;54.35;101913.63;5005934;28;119879;-78
2022/05/18 08:15:52;;;;;;;6.43;4.00;;;;;;;20.89;54.11;101927.69;4991051;28;121058;-78
2022/05/18 08:18:20;;;;;;;5.45;4.15;;;;;;;20.90;54.20;101932.00;5005570;28;119783;-79
2022/05/18 08:20:47;;;;;;;6.30;3.83;;;;;;;20.88;53.82;101931.75;4999069;27;120407;-78
2022/05/18 08:23:13;;;;;;;9.32;4.68;;;;;;;20.87;54.25;101924.63;4986990;28;120855;-78
2022/05/18 08:25:39;;;;;;;5.05;3.92;;;;;;;20.87;54.62;101922.63;4989030;28;119933;-78
2022/05/18 08:28:05;;;;;;;7.07;4.03;;;;;;;20.88;55.19;101917.81;4985730;28;119432;-78
2022/05/18 08:30:33;;;;;;;10.45;4.15;;;;;;;20.89;55.04;101914.50;4999904;28;120062;-80
2022/05/18 08:33:01;;;;;;;7.50;3.58;;;;;;;20.89;55.17;101905.38;4999511;27;119660;-78
2022/05/18 08:35:30;;;;;;;9.63;4.63;;;;;;;20.95;55.69;101906.19;4987661;28;119732;-78
2022/05/18 08:37:57;;;;;;;8.10;4.30;;;;;;;21.00;55.10;101911.81;5010563;28;119883;-78
2022/05/18 08:40:28;;;;;;;10.40;5.28;;;;;;;21.06;55.13;101911.88;4991383;28;121532;-78
2022/05/18 08:43:00;;;;;;;8.38;4.80;;;;;;;21.20;55.42;101905.41;5007837;28;120059;-78
2022/05/18 08:45:31;;;;;;;9.00;4.20;;;;;;;21.35;56.10;101891.34;5006155;28;119597;-78
2022/05/18 08:48:15;;;;;;;10.18;4.70;;;;;;;21.44;55.16;101897.47;4989770;28;120444;-78
2022/05/18 08:50:41;;;;;;;10.43;5.10;;;;;;;21.51;55.64;101899.03;4986759;28;120492;-78
2022/05/18 08:53:40;;;;;;;8.82;5.00;;;;;;;21.61;55.67;101886.44;5007021;27;119683;-78
2022/05/18 08:56:25;;;;;;;7.85;4.60;;;;;;;21.73;55.32;101884.44;4976485;28;121903;-77
2022/05/18 08:58:53;;;;;;;8.43;4.93;;;;;;;21.87;55.47;101874.38;4972604;28;121539;-79
2022/05/18 09:01:36;;;;;;;9.02;5.00;;;;;;;21.98;55.48;101880.00;4991509;28;120191;-78
2022/05/18 09:04:16;;;;;;;17.33;4.97;;;;;;;22.14;55.72;101881.38;5003846;28;120384;-78
2022/05/18 09:06:57;;;;;;;7.82;4.75;;;;;;;22.28;55.90;101878.38;5008203;28;120063;-78
2022/05/18 09:12:14;;;;;;;10.70;5.28;;;;;;;22.44;53.86;101882.47;5008219;28;119675;-78
2022/05/18 09:14:43;;;;;;;8.90;5.10;;;;;;;22.49;53.98;101878.94;5009195;28;119862;-78
2022/05/18 09:17:09;;;;;;;8.60;5.20;;;;;;;22.58;53.57;101887.09;4989800;28;120537;-79
2022/05/18 09:19:58;;;;;;;9.93;5.63;;;;;;;22.65;53.37;101875.41;5008495;28;120138;-78
2022/05/18 09:22:47;;;;;;;12.93;5.72;;;;;;;22.72;54.54;101881.78;4996460;28;119954;-78
2022/05/18 09:25:49;;;;;;;9.70;6.00;;;;;;;22.82;54.45;101877.50;5003072;28;119600;-78
2022/05/18 09:28:36;;;;;;;9.27;5.97;;;;;;;22.90;54.58;101876.47;5007303;28;120092;-78
2022/05/18 09:31:09;;;;;;;9.35;6.05;;;;;;;22.94;54.30;101873.41;4991516;28;120130;-79
2022/05/18 09:33:56;;;;;;;36.03;11.15;;;;;;;23.03;54.80;101864.00;4988140;28;120150;-78
2022/05/18 09:36:46;;;;;;;16.08;7.47;;;;;;;23.10;54.89;101863.50;4990062;28;119837;-78
2022/05/18 09:39:17;;;;;;;94.63;33.05;;;;;;;23.14;54.81;101870.34;4983154;28;120043;-78
2022/05/18 09:42:00;;;;;;;13.52;6.70;;;;;;;23.21;54.24;101858.66;5006679;27;120502;-78
2022/05/18 09:44:47;;;;;;;11.90;5.93;;;;;;;23.24;54.19;101857.63;5005168;28;120028;-78
2022/05/18 09:47:18;;;;;;;10.65;6.32;;;;;;;23.30;55.26;101851.25;4994270;28;119997;-79
2022/05/18 09:49:51;;;;;;;12.98;6.50;;;;;;;23.37;56.02;101853.53;5005217;28;120053;-78
2022/05/18 09:52:29;;;;;;;12.60;6.25;;;;;;;23.41;54.80;101857.59;5008666;28;121067;-78
2022/05/18 09:54:57;;;;;;;11.15;5.90;;;;;;;23.45;55.04;101843.34;5007803;28;120665;-78
2022/05/18 09:57:49;;;;;;;10.45;6.50;;;;;;;23.48;54.79;101853.53;5009943;28;120576;-78
2022/05/18 10:00:27;;;;;;;13.00;6.63;;;;;;;23.51;53.91;101846.88;5009527;28;121030;-78
2022/05/18 10:08:27;;;;;;;9.75;6.28;;;;;;;23.60;54.60;101855.03;4991657;28;121098;-78
2022/05/18 10:11:12;;;;;;;12.27;7.00;;;;;;;23.67;54.41;101848.91;5006087;28;120874;-78
2022/05/18 10:13:43;;;;;;;14.07;7.22;;;;;;;23.69;53.77;101848.41;4962892;28;122940;-78
2022/05/18 10:16:28;;;;;;;15.48;7.47;;;;;;;23.71;53.69;101854.25;4952815;28;122510;-78
2022/05/18 10:18:59;;;;;;;10.43;6.80;;;;;;;23.71;54.39;101841.00;5006558;28;120866;-78
2022/05/18 10:21:31;;;;;;;13.32;6.90;;;;;;;23.75;55.33;101841.50;4972826;28;121340;-79
2022/05/18 10:24:08;;;;;;;11.40;6.75;;;;;;;23.76;55.24;101836.66;4986751;28;120520;-79
2022/05/18 10:26:40;;;;;;;15.02;6.90;;;;;;;23.80;54.58;101845.53;4998020;28;121027;-79
2022/05/18 10:29:12;;;;;;;15.13;7.32;;;;;;;23.80;54.52;101843.50;5005091;28;120538;-78
2022/05/18 10:32:00;;;;;;;11.05;7.15;;;;;;;23.81;54.65;101838.66;5009393;27;122806;-78
2022/05/18 10:34:29;;;;;;;11.48;7.78;;;;;;;23.83;54.65;101838.91;4998238;27;120726;-80
2022/05/18 10:36:58;;;;;;;10.73;7.07;;;;;;;23.87;54.24;101834.56;5001906;27;121535;-78
2022/05/18 10:39:36;;;;;;;10.57;6.53;;;;;;;23.87;53.85;101833.78;4972436;28;121054;-78
2022/05/18 10:42:24;;;;;;;10.75;7.03;;;;;;;23.87;53.28;101831.75;4993655;28;121504;-78
2022/05/18 10:44:53;;;;;;;12.88;6.72;;;;;;;23.88;53.96;101824.88;5008675;27;121393;-78
2022/05/18 10:47:32;;;;;;;9.13;6.13;;;;;;;23.88;53.58;101826.91;5006921;28;121354;-78
2022/05/18 10:50:32;;;;;;;15.52;7.60;;;;;;;23.89;53.65;101820.78;4988822;28;122155;-78
2022/05/18 10:53:17;;;;;;;12.65;7.07;;;;;;;23.89;54.09;101823.59;4998855;28;121963;-78
2022/05/18 10:56:00;;;;;;;9.80;6.80;;;;;;;23.92;54.37;101818.25;5003978;28;121103;-78
2022/05/18 10:58:51;;;;;;;14.70;7.35;;;;;;;23.92;54.34;101816.22;5003540;28;121174;-78
2022/05/18 11:01:22;;;;;;;10.70;6.47;;;;;;;23.93;54.55;101812.13;4989738;28;120909;-78
2022/05/18 11:04:12;;;;;;;13.82;6.70;;;;;;;23.94;54.70;101804.47;5008361;28;121285;-79
2022/05/18 11:06:40;;;;;;;9.98;6.40;;;;;;;23.98;54.45;101814.13;5008858;27;121804;-78
2022/05/18 11:09:31;;;;;;;8.55;6.80;;;;;;;23.99;53.90;101806.50;5007572;28;121068;-78
2022/05/18 11:12:06;;;;;;;11.52;6.53;;;;;;;24.01;53.69;101801.13;4984906;28;121826;-78
2022/05/18 11:14:46;;;;;;;11.63;5.70;;;;;;;24.00;53.61;101796.81;5005434;28;121783;-78
2022/05/18 11:17:35;;;;;;;9.43;6.22;;;;;;;24.01;54.13;101795.53;5010204;28;121102;-78
2022/05/18 11:20:20;;;;;;;9.15;6.53;;;;;;;23.99;53.88;101796.03;5005268;28;121067;-79
2022/05/18 11:23:01;;;;;;;10.57;6.68;;;;;;;23.98;54.21;101794.53;4995460;28;121031;-79
2022/05/18 11:25:33;;;;;;;10.40;6.20;;;;;;;24.03;54.34;101804.16;5008297;28;121430;-80
2022/05/18 11:28:16;;;;;;;9.05;5.70;;;;;;;24.05;54.66;101793.97;5003704;28;122975;-78
2022/05/18 11:30:55;;;;;;;10.23;5.90;;;;;;;24.09;54.40;101788.06;4998881;28;122282;-78
2022/05/18 11:33:29;;;;;;;10.38;6.30;;;;;;;24.13;54.22;101794.16;4987620;28;123805;-76
2022/05/18 11:36:01;;;;;;;11.23;6.03;;;;;;;24.16;54.61;101796.72;5008722;28;121578;-76
2022/05/18 11:38:28;;;;;;;8.10;5.85;;;;;;;24.18;53.58;101790.59;4989874;28;121500;-76
2022/05/18 11:41:03;;;;;;;11.07;6.13;;;;;;;24.21;54.39;101786.75;4973781;28;121881;-76
2022/05/18 11:44:06;;;;;;;10.68;5.53;;;;;;;24.26;54.14;101785.19;4998297;28;122022;-76
2022/05/18 11:46:44;;;;;;;12.82;6.65;;;;;;;24.27;53.64;101781.84;5001593;28;121512;-76